sensor_id;sensor_type;location;lat;lon;timestamp;P1;durP1;ratioP1;P2;durP2;ratioP2
36189;SDS011;22232;50.914;13.858;2022-10-13T00:01:12;21.73;;;9.18;;
36189;SDS011;22232;50.914;13.858;2022-10-13T00:03:44;24.37;;;10.07;;
36189;SDS011;22232;50.914;13.858;2022-10-13T00:06:19;19.98;;;10.13;;
36189;SDS011;22232;50.914;13.858;2022-10-13T00:08:49;17.63;;;8.95;;
36189;SDS011;22232;50.914;13.858;2022-10-13T00:11:18;15.45;;;8.70;;
36189;SDS011;22232;50.914;13.858;2022-10-13T00:13:53;16.42;;;8.60;;
36189;SDS011;22232;50.914;13.858;2022-10-13T00:16:29;16.98;;;8.30;;
36189;SDS011;22232;50.914;13.858;2022-10-13T00:18:57;17.58;;;9.05;;
36189;SDS011;22232;50.914;13.858;2022-10-13T00:21:26;18.63;;;9.43;;
36189;SDS011;22232;50.914;13.858;2022-10-13T00:23:54;24.88;;;10.15;;
36189;SDS011;22232;50.914;13.858;2022-10-13T00:26:22;26.70;;;9.43;;
36189;SDS011;22232;50.914;13.858;2022-10-13T00:28:52;19.13;;;9.00;;
36189;SDS011;22232;50.914;13.858;2022-10-13T00:31:25;16.88;;;8.98;;
36189;SDS011;22232;50.914;13.858;2022-10-13T00:33:54;17.65;;;9.65;;
36189;SDS011;22232;50.914;13.858;2022-10-13T00:36:22;17.83;;;8.48;;
36189;SDS011;22232;50.914;13.858;2022-10-13T00:38:51;18.27;;;9.52;;
36189;SDS011;22232;50.914;13.858;2022-10-13T00:41:19;18.77;;;9.32;;
36189;SDS011;22232;50.914;13.858;2022-10-13T00:43:51;18.08;;;8.82;;
36189;SDS011;22232;50.914;13.858;2022-10-13T00:46:28;21.73;;;10.13;;
36189;SDS011;22232;50.914;13.858;2022-10-13T00:49:00;17.58;;;9.93;;
36189;SDS011;22232;50.914;13.858;2022-10-13T00:51:33;18.98;;;10.38;;
36189;SDS011;22232;50.914;13.858;2022-10-13T00:54:06;17.73;;;10.07;;
36189;SDS011;22232;50.914;13.858;2022-10-13T00:56:36;18.63;;;9.85;;
36189;SDS011;22232;50.914;13.858;2022-10-13T00:59:07;18.92;;;10.10;;
36189;SDS011;22232;50.914;13.858;2022-10-13T01:01:40;23.08;;;9.80;;
36189;SDS011;22232;50.914;13.858;2022-10-13T01:04:07;20.25;;;9.35;;
36189;SDS011;22232;50.914;13.858;2022-10-13T01:06:36;17.60;;;9.90;;
36189;SDS011;22232;50.914;13.858;2022-10-13T01:09:07;18.40;;;9.75;;
36189;SDS011;22232;50.914;13.858;2022-10-13T01:14:07;14.88;;;9.18;;
36189;SDS011;22232;50.914;13.858;2022-10-13T01:22:44;21.05;;;10.27;;
36189;SDS011;22232;50.914;13.858;2022-10-13T01:28:07;18.25;;;10.05;;
36189;SDS011;22232;50.914;13.858;2022-10-13T01:30:57;24.85;;;11.02;;
36189;SDS011;22232;50.914;13.858;2022-10-13T01:33:38;21.67;;;10.13;;
36189;SDS011;22232;50.914;13.858;2022-10-13T01:39:05;20.05;;;10.13;;
36189;SDS011;22232;50.914;13.858;2022-10-13T01:41:40;19.02;;;9.75;;
36189;SDS011;22232;50.914;13.858;2022-10-13T01:46:55;22.92;;;10.05;;
36189;SDS011;22232;50.914;13.858;2022-10-13T01:49:26;23.35;;;10.02;;
36189;SDS011;22232;50.914;13.858;2022-10-13T01:51:58;17.45;;;9.73;;
36189;SDS011;22232;50.914;13.858;2022-10-13T01:54:29;20.13;;;9.60;;
36189;SDS011;22232;50.914;13.858;2022-10-13T01:56:58;18.73;;;10.27;;
36189;SDS011;22232;50.914;13.858;2022-10-13T01:59:26;18.10;;;10.02;;
36189;SDS011;22232;50.914;13.858;2022-10-13T02:07:31;16.27;;;10.57;;
36189;SDS011;22232;50.914;13.858;2022-10-13T02:10:06;20.38;;;10.57;;
36189;SDS011;22232;50.914;13.858;2022-10-13T02:12:52;19.10;;;9.60;;
36189;SDS011;22232;50.914;13.858;2022-10-13T02:15:32;18.48;;;9.55;;
36189;SDS011;22232;50.914;13.858;2022-10-13T02:18:03;21.90;;;10.00;;
36189;SDS011;22232;50.914;13.858;2022-10-13T02:20:33;19.58;;;9.95;;
36189;SDS011;22232;50.914;13.858;2022-10-13T02:23:03;19.98;;;9.88;;
36189;SDS011;22232;50.914;13.858;2022-10-13T02:25:36;15.48;;;9.27;;
36189;SDS011;22232;50.914;13.858;2022-10-13T02:28:03;17.20;;;9.00;;
36189;SDS011;22232;50.914;13.858;2022-10-13T02:30:37;18.25;;;9.45;;
36189;SDS011;22232;50.914;13.858;2022-10-13T02:33:07;20.05;;;9.75;;
36189;SDS011;22232;50.914;13.858;2022-10-13T02:35:36;22.42;;;9.38;;
36189;SDS011;22232;50.914;13.858;2022-10-13T02:38:05;19.25;;;9.05;;
36189;SDS011;22232;50.914;13.858;2022-10-13T02:40:32;20.92;;;9.77;;
36189;SDS011;22232;50.914;13.858;2022-10-13T02:43:00;19.95;;;8.90;;
36189;SDS011;22232;50.914;13.858;2022-10-13T02:45:27;13.50;;;8.60;;
36189;SDS011;22232;50.914;13.858;2022-10-13T02:47:55;20.13;;;9.15;;
36189;SDS011;22232;50.914;13.858;2022-10-13T02:50:24;15.98;;;8.82;;
36189;SDS011;22232;50.914;13.858;2022-10-13T02:52:52;17.27;;;9.52;;
36189;SDS011;22232;50.914;13.858;2022-10-13T02:55:19;19.75;;;9.13;;
36189;SDS011;22232;50.914;13.858;2022-10-13T02:57:55;16.17;;;9.23;;
36189;SDS011;22232;50.914;13.858;2022-10-13T03:00:23;14.00;;;8.88;;
36189;SDS011;22232;50.914;13.858;2022-10-13T03:02:52;21.23;;;8.82;;
36189;SDS011;22232;50.914;13.858;2022-10-13T03:05:20;23.10;;;9.30;;
36189;SDS011;22232;50.914;13.858;2022-10-13T03:07:47;20.67;;;9.60;;
36189;SDS011;22232;50.914;13.858;2022-10-13T03:10:15;16.00;;;8.98;;
36189;SDS011;22232;50.914;13.858;2022-10-13T03:12:43;18.40;;;9.60;;
36189;SDS011;22232;50.914;13.858;2022-10-13T03:15:10;17.27;;;9.23;;
36189;SDS011;22232;50.914;13.858;2022-10-13T03:17:38;17.70;;;8.50;;
36189;SDS011;22232;50.914;13.858;2022-10-13T03:20:06;17.20;;;9.45;;
36189;SDS011;22232;50.914;13.858;2022-10-13T03:22:34;19.30;;;8.73;;
36189;SDS011;22232;50.914;13.858;2022-10-13T03:25:02;14.45;;;8.30;;
36189;SDS011;22232;50.914;13.858;2022-10-13T03:27:29;14.07;;;9.68;;
36189;SDS011;22232;50.914;13.858;2022-10-13T03:29:57;16.50;;;8.15;;
36189;SDS011;22232;50.914;13.858;2022-10-13T03:32:24;14.35;;;8.25;;
36189;SDS011;22232;50.914;13.858;2022-10-13T03:34:52;14.27;;;8.15;;
36189;SDS011;22232;50.914;13.858;2022-10-13T03:37:20;18.10;;;8.25;;
36189;SDS011;22232;50.914;13.858;2022-10-13T03:39:47;17.15;;;9.13;;
36189;SDS011;22232;50.914;13.858;2022-10-13T03:42:15;16.73;;;8.90;;
36189;SDS011;22232;50.914;13.858;2022-10-13T03:44:46;17.10;;;8.20;;
36189;SDS011;22232;50.914;13.858;2022-10-13T03:47:19;19.83;;;9.27;;
36189;SDS011;22232;50.914;13.858;2022-10-13T03:49:47;17.67;;;9.25;;
36189;SDS011;22232;50.914;13.858;2022-10-13T03:52:14;17.60;;;8.45;;
36189;SDS011;22232;50.914;13.858;2022-10-13T03:54:42;16.13;;;8.80;;
36189;SDS011;22232;50.914;13.858;2022-10-13T03:57:09;19.17;;;9.40;;
36189;SDS011;22232;50.914;13.858;2022-10-13T03:59:38;19.20;;;8.70;;
36189;SDS011;22232;50.914;13.858;2022-10-13T04:02:07;14.98;;;8.32;;
36189;SDS011;22232;50.914;13.858;2022-10-13T04:04:35;20.63;;;8.70;;
36189;SDS011;22232;50.914;13.858;2022-10-13T04:07:04;12.77;;;7.95;;
36189;SDS011;22232;50.914;13.858;2022-10-13T04:09:33;14.93;;;7.97;;
36189;SDS011;22232;50.914;13.858;2022-10-13T04:12:00;17.10;;;8.02;;
36189;SDS011;22232;50.914;13.858;2022-10-13T04:14:28;13.50;;;8.35;;
36189;SDS011;22232;50.914;13.858;2022-10-13T04:17:01;17.98;;;8.73;;
36189;SDS011;22232;50.914;13.858;2022-10-13T04:19:28;12.77;;;7.90;;
36189;SDS011;22232;50.914;13.858;2022-10-13T04:21:57;11.30;;;7.32;;
36189;SDS011;22232;50.914;13.858;2022-10-13T04:24:24;14.80;;;8.50;;
36189;SDS011;22232;50.914;13.858;2022-10-13T04:26:52;21.92;;;8.48;;
36189;SDS011;22232;50.914;13.858;2022-10-13T04:29:19;13.35;;;7.95;;
36189;SDS011;22232;50.914;13.858;2022-10-13T04:31:50;19.38;;;8.90;;
36189;SDS011;22232;50.914;13.858;2022-10-13T04:34:18;23.33;;;9.98;;
36189;SDS011;22232;50.914;13.858;2022-10-13T04:36:48;21.73;;;10.23;;
36189;SDS011;22232;50.914;13.858;2022-10-13T04:39:17;15.80;;;8.45;;
36189;SDS011;22232;50.914;13.858;2022-10-13T04:41:47;12.65;;;8.07;;
36189;SDS011;22232;50.914;13.858;2022-10-13T04:44:15;13.75;;;8.18;;
36189;SDS011;22232;50.914;13.858;2022-10-13T04:46:42;20.58;;;8.63;;
36189;SDS011;22232;50.914;13.858;2022-10-13T04:49:10;17.25;;;8.25;;
36189;SDS011;22232;50.914;13.858;2022-10-13T04:51:37;16.73;;;8.10;;
36189;SDS011;22232;50.914;13.858;2022-10-13T04:54:05;15.85;;;8.20;;
36189;SDS011;22232;50.914;13.858;2022-10-13T04:56:32;13.73;;;7.85;;
36189;SDS011;22232;50.914;13.858;2022-10-13T04:59:01;13.48;;;7.22;;
36189;SDS011;22232;50.914;13.858;2022-10-13T05:01:32;15.85;;;7.70;;
36189;SDS011;22232;50.914;13.858;2022-10-13T05:04:01;12.90;;;7.85;;
36189;SDS011;22232;50.914;13.858;2022-10-13T05:06:35;16.73;;;8.82;;
36189;SDS011;22232;50.914;13.858;2022-10-13T05:09:19;18.00;;;9.75;;
36189;SDS011;22232;50.914;13.858;2022-10-13T05:11:48;17.05;;;8.90;;
36189;SDS011;22232;50.914;13.858;2022-10-13T05:14:15;21.02;;;9.85;;
36189;SDS011;22232;50.914;13.858;2022-10-13T05:16:43;15.73;;;8.75;;
36189;SDS011;22232;50.914;13.858;2022-10-13T05:19:12;21.20;;;9.23;;
36189;SDS011;22232;50.914;13.858;2022-10-13T05:21:39;23.40;;;11.40;;
36189;SDS011;22232;50.914;13.858;2022-10-13T05:24:07;19.48;;;10.82;;
36189;SDS011;22232;50.914;13.858;2022-10-13T05:26:39;20.75;;;11.45;;
36189;SDS011;22232;50.914;13.858;2022-10-13T05:29:07;28.55;;;11.05;;
36189;SDS011;22232;50.914;13.858;2022-10-13T05:31:35;22.83;;;11.00;;
36189;SDS011;22232;50.914;13.858;2022-10-13T05:34:03;24.95;;;11.25;;
36189;SDS011;22232;50.914;13.858;2022-10-13T05:36:31;20.73;;;11.38;;
36189;SDS011;22232;50.914;13.858;2022-10-13T05:39:03;21.88;;;11.02;;
36189;SDS011;22232;50.914;13.858;2022-10-13T05:41:32;22.17;;;10.57;;
36189;SDS011;22232;50.914;13.858;2022-10-13T05:44:03;23.77;;;11.10;;
36189;SDS011;22232;50.914;13.858;2022-10-13T05:46:39;23.10;;;10.75;;
36189;SDS011;22232;50.914;13.858;2022-10-13T05:49:06;19.40;;;9.93;;
36189;SDS011;22232;50.914;13.858;2022-10-13T05:51:35;23.35;;;11.10;;
36189;SDS011;22232;50.914;13.858;2022-10-13T05:56:41;22.75;;;10.85;;
36189;SDS011;22232;50.914;13.858;2022-10-13T05:59:14;20.35;;;9.77;;
36189;SDS011;22232;50.914;13.858;2022-10-13T06:01:46;15.60;;;8.88;;
36189;SDS011;22232;50.914;13.858;2022-10-13T06:04:16;22.00;;;10.45;;
36189;SDS011;22232;50.914;13.858;2022-10-13T06:09:15;19.63;;;10.60;;
36189;SDS011;22232;50.914;13.858;2022-10-13T06:11:44;21.15;;;11.07;;
36189;SDS011;22232;50.914;13.858;2022-10-13T06:14:12;19.70;;;10.43;;
36189;SDS011;22232;50.914;13.858;2022-10-13T06:16:39;30.00;;;12.85;;
36189;SDS011;22232;50.914;13.858;2022-10-13T06:19:08;25.40;;;11.07;;
36189;SDS011;22232;50.914;13.858;2022-10-13T06:21:35;21.40;;;11.48;;
36189;SDS011;22232;50.914;13.858;2022-10-13T06:24:03;26.77;;;11.48;;
36189;SDS011;22232;50.914;13.858;2022-10-13T06:26:30;31.58;;;13.40;;
36189;SDS011;22232;50.914;13.858;2022-10-13T06:28:58;33.17;;;13.85;;
36189;SDS011;22232;50.914;13.858;2022-10-13T06:31:26;36.13;;;14.40;;
36189;SDS011;22232;50.914;13.858;2022-10-13T06:33:54;24.40;;;12.75;;
36189;SDS011;22232;50.914;13.858;2022-10-13T06:36:21;31.13;;;14.45;;
36189;SDS011;22232;50.914;13.858;2022-10-13T06:38:49;34.47;;;14.82;;
36189;SDS011;22232;50.914;13.858;2022-10-13T06:41:19;26.25;;;13.80;;
36189;SDS011;22232;50.914;13.858;2022-10-13T06:43:46;26.88;;;13.68;;
36189;SDS011;22232;50.914;13.858;2022-10-13T06:46:15;26.92;;;13.40;;
36189;SDS011;22232;50.914;13.858;2022-10-13T06:48:43;23.10;;;12.40;;
36189;SDS011;22232;50.914;13.858;2022-10-13T06:51:10;23.08;;;12.50;;
36189;SDS011;22232;50.914;13.858;2022-10-13T06:53:38;25.42;;;13.43;;
36189;SDS011;22232;50.914;13.858;2022-10-13T06:56:06;27.05;;;12.25;;
36189;SDS011;22232;50.914;13.858;2022-10-13T06:58:34;19.73;;;12.07;;
36189;SDS011;22232;50.914;13.858;2022-10-13T07:01:03;28.33;;;14.07;;
36189;SDS011;22232;50.914;13.858;2022-10-13T07:03:31;23.10;;;12.98;;
36189;SDS011;22232;50.914;13.858;2022-10-13T07:06:03;27.15;;;13.95;;
36189;SDS011;22232;50.914;13.858;2022-10-13T07:08:32;29.35;;;13.43;;
36189;SDS011;22232;50.914;13.858;2022-10-13T07:11:10;22.27;;;12.73;;
36189;SDS011;22232;50.914;13.858;2022-10-13T07:13:46;32.00;;;14.45;;
36189;SDS011;22232;50.914;13.858;2022-10-13T07:16:14;32.28;;;15.32;;
36189;SDS011;22232;50.914;13.858;2022-10-13T07:18:41;33.65;;;14.20;;
36189;SDS011;22232;50.914;13.858;2022-10-13T07:21:09;26.83;;;13.02;;
36189;SDS011;22232;50.914;13.858;2022-10-13T07:23:36;32.75;;;15.20;;
36189;SDS011;22232;50.914;13.858;2022-10-13T07:26:08;23.88;;;12.52;;
36189;SDS011;22232;50.914;13.858;2022-10-13T07:31:06;29.05;;;13.52;;
36189;SDS011;22232;50.914;13.858;2022-10-13T07:33:38;25.15;;;13.18;;
36189;SDS011;22232;50.914;13.858;2022-10-13T07:36:06;20.52;;;11.48;;
36189;SDS011;22232;50.914;13.858;2022-10-13T07:38:34;24.60;;;13.18;;
36189;SDS011;22232;50.914;13.858;2022-10-13T07:41:02;24.77;;;13.82;;
36189;SDS011;22232;50.914;13.858;2022-10-13T07:43:30;20.60;;;12.85;;
36189;SDS011;22232;50.914;13.858;2022-10-13T07:45:58;30.25;;;13.18;;
36189;SDS011;22232;50.914;13.858;2022-10-13T07:48:27;25.15;;;14.32;;
36189;SDS011;22232;50.914;13.858;2022-10-13T07:50:58;22.35;;;13.40;;
36189;SDS011;22232;50.914;13.858;2022-10-13T07:53:28;21.90;;;12.77;;
36189;SDS011;22232;50.914;13.858;2022-10-13T07:55:58;27.08;;;13.65;;
36189;SDS011;22232;50.914;13.858;2022-10-13T07:58:27;29.13;;;14.43;;
36189;SDS011;22232;50.914;13.858;2022-10-13T08:00:55;22.23;;;13.15;;
36189;SDS011;22232;50.914;13.858;2022-10-13T08:03:27;22.70;;;12.90;;
36189;SDS011;22232;50.914;13.858;2022-10-13T08:05:57;26.70;;;14.25;;
36189;SDS011;22232;50.914;13.858;2022-10-13T08:08:25;27.30;;;14.20;;
36189;SDS011;22232;50.914;13.858;2022-10-13T08:10:54;24.20;;;13.50;;
36189;SDS011;22232;50.914;13.858;2022-10-13T08:13:22;24.15;;;13.15;;
36189;SDS011;22232;50.914;13.858;2022-10-13T08:15:50;22.60;;;12.65;;
36189;SDS011;22232;50.914;13.858;2022-10-13T08:18:17;26.40;;;13.05;;
36189;SDS011;22232;50.914;13.858;2022-10-13T08:20:46;20.52;;;12.57;;
36189;SDS011;22232;50.914;13.858;2022-10-13T08:23:16;26.98;;;13.95;;
36189;SDS011;22232;50.914;13.858;2022-10-13T08:25:50;27.67;;;13.93;;
36189;SDS011;22232;50.914;13.858;2022-10-13T08:28:18;24.17;;;13.65;;
36189;SDS011;22232;50.914;13.858;2022-10-13T08:30:49;25.83;;;12.90;;
36189;SDS011;22232;50.914;13.858;2022-10-13T08:33:18;27.90;;;13.40;;
36189;SDS011;22232;50.914;13.858;2022-10-13T08:35:46;25.17;;;13.25;;
36189;SDS011;22232;50.914;13.858;2022-10-13T08:38:14;24.08;;;12.13;;
36189;SDS011;22232;50.914;13.858;2022-10-13T08:40:46;24.85;;;13.63;;
36189;SDS011;22232;50.914;13.858;2022-10-13T08:43:17;25.70;;;14.63;;
36189;SDS011;22232;50.914;13.858;2022-10-13T08:45:47;21.65;;;13.40;;
36189;SDS011;22232;50.914;13.858;2022-10-13T08:48:18;27.42;;;13.90;;
36189;SDS011;22232;50.914;13.858;2022-10-13T08:50:50;24.42;;;14.40;;
36189;SDS011;22232;50.914;13.858;2022-10-13T08:53:29;26.25;;;13.57;;
36189;SDS011;22232;50.914;13.858;2022-10-13T08:58:46;26.02;;;13.45;;
36189;SDS011;22232;50.914;13.858;2022-10-13T09:08:58;23.42;;;13.00;;
36189;SDS011;22232;50.914;13.858;2022-10-13T09:11:29;26.27;;;13.82;;
36189;SDS011;22232;50.914;13.858;2022-10-13T09:14:04;23.15;;;14.45;;
36189;SDS011;22232;50.914;13.858;2022-10-13T09:16:35;27.20;;;14.63;;
36189;SDS011;22232;50.914;13.858;2022-10-13T09:19:16;30.10;;;14.95;;
36189;SDS011;22232;50.914;13.858;2022-10-13T09:21:49;25.08;;;14.77;;
36189;SDS011;22232;50.914;13.858;2022-10-13T09:24:39;27.95;;;14.85;;
36189;SDS011;22232;50.914;13.858;2022-10-13T09:27:13;25.42;;;14.70;;
36189;SDS011;22232;50.914;13.858;2022-10-13T09:29:43;28.42;;;14.48;;
36189;SDS011;22232;50.914;13.858;2022-10-13T09:34:51;26.23;;;13.82;;
36189;SDS011;22232;50.914;13.858;2022-10-13T09:37:22;26.33;;;13.43;;
36189;SDS011;22232;50.914;13.858;2022-10-13T09:40:12;28.50;;;13.90;;
36189;SDS011;22232;50.914;13.858;2022-10-13T09:42:40;27.42;;;14.00;;
36189;SDS011;22232;50.914;13.858;2022-10-13T09:45:11;23.35;;;13.88;;
36189;SDS011;22232;50.914;13.858;2022-10-13T09:47:49;24.05;;;13.40;;
36189;SDS011;22232;50.914;13.858;2022-10-13T09:50:21;30.60;;;13.98;;
36189;SDS011;22232;50.914;13.858;2022-10-13T09:52:52;25.03;;;13.93;;
36189;SDS011;22232;50.914;13.858;2022-10-13T09:55:35;22.33;;;12.40;;
36189;SDS011;22232;50.914;13.858;2022-10-13T09:58:09;23.27;;;13.77;;
36189;SDS011;22232;50.914;13.858;2022-10-13T10:00:43;19.50;;;12.60;;
36189;SDS011;22232;50.914;13.858;2022-10-13T10:03:16;20.42;;;11.10;;
36189;SDS011;22232;50.914;13.858;2022-10-13T10:05:49;20.50;;;10.18;;
36189;SDS011;22232;50.914;13.858;2022-10-13T10:08:23;21.80;;;10.43;;
36189;SDS011;22232;50.914;13.858;2022-10-13T10:11:00;16.98;;;9.20;;
36189;SDS011;22232;50.914;13.858;2022-10-13T10:13:31;21.95;;;10.82;;
36189;SDS011;22232;50.914;13.858;2022-10-13T10:16:02;21.42;;;11.70;;
36189;SDS011;22232;50.914;13.858;2022-10-13T10:18:50;19.02;;;11.32;;
36189;SDS011;22232;50.914;13.858;2022-10-13T10:21:40;20.48;;;11.43;;
36189;SDS011;22232;50.914;13.858;2022-10-13T10:26:59;15.50;;;8.15;;
36189;SDS011;22232;50.914;13.858;2022-10-13T10:32:29;13.68;;;8.00;;
36189;SDS011;22232;50.914;13.858;2022-10-13T10:35:15;14.38;;;7.72;;
36189;SDS011;22232;50.914;13.858;2022-10-13T10:38:04;14.30;;;7.32;;
36189;SDS011;22232;50.914;13.858;2022-10-13T10:40:47;10.23;;;6.05;;
36189;SDS011;22232;50.914;13.858;2022-10-13T10:46:20;12.15;;;6.32;;
36189;SDS011;22232;50.914;13.858;2022-10-13T10:49:03;14.30;;;6.53;;
36189;SDS011;22232;50.914;13.858;2022-10-13T10:51:41;9.70;;;5.88;;
36189;SDS011;22232;50.914;13.858;2022-10-13T10:56:44;14.02;;;7.35;;
36189;SDS011;22232;50.914;13.858;2022-10-13T11:14:55;11.68;;;5.97;;
36189;SDS011;22232;50.914;13.858;2022-10-13T11:34:56;15.02;;;6.13;;
36189;SDS011;22232;50.914;13.858;2022-10-13T11:40:56;13.82;;;5.60;;
36189;SDS011;22232;50.914;13.858;2022-10-13T11:43:51;9.63;;;4.70;;
36189;SDS011;22232;50.914;13.858;2022-10-13T11:46:37;14.07;;;5.35;;
36189;SDS011;22232;50.914;13.858;2022-10-13T11:55:17;13.27;;;5.30;;
36189;SDS011;22232;50.914;13.858;2022-10-13T11:58:29;10.30;;;5.20;;
36189;SDS011;22232;50.914;13.858;2022-10-13T12:03:32;21.75;;;10.98;;
36189;SDS011;22232;50.914;13.858;2022-10-13T12:06:44;19.73;;;10.57;;
36189;SDS011;22232;50.914;13.858;2022-10-13T12:09:01;17.42;;;10.07;;
36189;SDS011;22232;50.914;13.858;2022-10-13T12:11:41;16.63;;;8.52;;
36189;SDS011;22232;50.914;13.858;2022-10-13T12:14:20;15.38;;;9.60;;
36189;SDS011;22232;50.914;13.858;2022-10-13T12:16:53;17.15;;;8.48;;
36189;SDS011;22232;50.914;13.858;2022-10-13T12:19:28;21.65;;;9.82;;
36189;SDS011;22232;50.914;13.858;2022-10-13T12:21:59;13.35;;;8.52;;
36189;SDS011;22232;50.914;13.858;2022-10-13T12:24:28;22.33;;;10.98;;
36189;SDS011;22232;50.914;13.858;2022-10-13T12:26:56;18.02;;;10.43;;
36189;SDS011;22232;50.914;13.858;2022-10-13T12:29:25;19.13;;;9.85;;
36189;SDS011;22232;50.914;13.858;2022-10-13T12:32:00;20.45;;;10.63;;
36189;SDS011;22232;50.914;13.858;2022-10-13T12:34:29;21.80;;;10.57;;
36189;SDS011;22232;50.914;13.858;2022-10-13T12:37:03;24.00;;;11.48;;
36189;SDS011;22232;50.914;13.858;2022-10-13T12:39:34;20.77;;;11.82;;
36189;SDS011;22232;50.914;13.858;2022-10-13T12:42:03;20.77;;;11.80;;
36189;SDS011;22232;50.914;13.858;2022-10-13T12:44:36;17.90;;;10.73;;
36189;SDS011;22232;50.914;13.858;2022-10-13T12:47:04;24.75;;;11.70;;
36189;SDS011;22232;50.914;13.858;2022-10-13T12:49:32;21.23;;;10.38;;
36189;SDS011;22232;50.914;13.858;2022-10-13T12:52:06;19.33;;;10.35;;
36189;SDS011;22232;50.914;13.858;2022-10-13T12:54:48;21.25;;;11.02;;
36189;SDS011;22232;50.914;13.858;2022-10-13T12:57:25;22.52;;;10.82;;
36189;SDS011;22232;50.914;13.858;2022-10-13T13:00:03;18.77;;;10.95;;
36189;SDS011;22232;50.914;13.858;2022-10-13T13:02:50;22.10;;;11.57;;
36189;SDS011;22232;50.914;13.858;2022-10-13T13:08:01;22.77;;;12.00;;
36189;SDS011;22232;50.914;13.858;2022-10-13T13:10:31;19.45;;;11.77;;
36189;SDS011;22232;50.914;13.858;2022-10-13T13:13:13;21.70;;;11.93;;
36189;SDS011;22232;50.914;13.858;2022-10-13T13:15:41;22.17;;;11.05;;
36189;SDS011;22232;50.914;13.858;2022-10-13T13:20:48;21.65;;;11.38;;
36189;SDS011;22232;50.914;13.858;2022-10-13T13:23:16;17.67;;;10.60;;
36189;SDS011;22232;50.914;13.858;2022-10-13T13:25:45;20.95;;;11.30;;
36189;SDS011;22232;50.914;13.858;2022-10-13T13:28:14;23.10;;;11.45;;
36189;SDS011;22232;50.914;13.858;2022-10-13T13:30:42;24.50;;;11.02;;
36189;SDS011;22232;50.914;13.858;2022-10-13T13:33:09;23.58;;;9.88;;
36189;SDS011;22232;50.914;13.858;2022-10-13T13:35:42;15.82;;;9.38;;
36189;SDS011;22232;50.914;13.858;2022-10-13T13:38:10;16.42;;;9.70;;
36189;SDS011;22232;50.914;13.858;2022-10-13T13:40:38;18.75;;;9.45;;
36189;SDS011;22232;50.914;13.858;2022-10-13T13:43:06;18.88;;;9.07;;
36189;SDS011;22232;50.914;13.858;2022-10-13T13:45:34;13.57;;;8.63;;
36189;SDS011;22232;50.914;13.858;2022-10-13T13:48:04;20.40;;;8.90;;
36189;SDS011;22232;50.914;13.858;2022-10-13T13:50:33;18.83;;;8.80;;
36189;SDS011;22232;50.914;13.858;2022-10-13T13:53:03;17.33;;;9.10;;
36189;SDS011;22232;50.914;13.858;2022-10-13T13:55:31;15.23;;;8.68;;
36189;SDS011;22232;50.914;13.858;2022-10-13T13:57:59;18.25;;;8.38;;
36189;SDS011;22232;50.914;13.858;2022-10-13T14:00:26;16.05;;;9.18;;
36189;SDS011;22232;50.914;13.858;2022-10-13T14:02:55;16.45;;;8.50;;
36189;SDS011;22232;50.914;13.858;2022-10-13T14:05:23;16.90;;;9.15;;
36189;SDS011;22232;50.914;13.858;2022-10-13T14:07:52;15.63;;;8.63;;
36189;SDS011;22232;50.914;13.858;2022-10-13T14:10:21;14.50;;;8.90;;
36189;SDS011;22232;50.914;13.858;2022-10-13T14:12:49;15.88;;;9.02;;
36189;SDS011;22232;50.914;13.858;2022-10-13T14:15:17;14.93;;;8.18;;
36189;SDS011;22232;50.914;13.858;2022-10-13T14:17:54;16.50;;;8.88;;
36189;SDS011;22232;50.914;13.858;2022-10-13T14:20:22;16.10;;;10.05;;
36189;SDS011;22232;50.914;13.858;2022-10-13T14:22:50;20.30;;;11.07;;
36189;SDS011;22232;50.914;13.858;2022-10-13T14:25:17;15.95;;;9.63;;
36189;SDS011;22232;50.914;13.858;2022-10-13T14:27:45;17.00;;;10.75;;
36189;SDS011;22232;50.914;13.858;2022-10-13T14:30:13;18.80;;;10.38;;
36189;SDS011;22232;50.914;13.858;2022-10-13T14:32:40;17.42;;;10.82;;
36189;SDS011;22232;50.914;13.858;2022-10-13T14:35:08;20.27;;;11.30;;
36189;SDS011;22232;50.914;13.858;2022-10-13T14:37:36;22.45;;;11.02;;
36189;SDS011;22232;50.914;13.858;2022-10-13T14:40:05;17.67;;;10.90;;
36189;SDS011;22232;50.914;13.858;2022-10-13T14:42:32;20.92;;;11.95;;
36189;SDS011;22232;50.914;13.858;2022-10-13T14:45:03;21.15;;;11.52;;
36189;SDS011;22232;50.914;13.858;2022-10-13T14:47:32;21.67;;;10.68;;
36189;SDS011;22232;50.914;13.858;2022-10-13T14:50:00;23.00;;;10.52;;
36189;SDS011;22232;50.914;13.858;2022-10-13T14:52:27;17.88;;;10.80;;
36189;SDS011;22232;50.914;13.858;2022-10-13T14:54:55;19.25;;;10.20;;
36189;SDS011;22232;50.914;13.858;2022-10-13T14:57:23;20.45;;;11.93;;
36189;SDS011;22232;50.914;13.858;2022-10-13T14:59:50;22.95;;;10.85;;
36189;SDS011;22232;50.914;13.858;2022-10-13T15:02:18;19.20;;;10.75;;
36189;SDS011;22232;50.914;13.858;2022-10-13T15:04:52;15.80;;;11.10;;
36189;SDS011;22232;50.914;13.858;2022-10-13T15:07:19;20.55;;;11.00;;
36189;SDS011;22232;50.914;13.858;2022-10-13T15:09:47;19.48;;;11.50;;
36189;SDS011;22232;50.914;13.858;2022-10-13T15:12:31;21.03;;;12.50;;
36189;SDS011;22232;50.914;13.858;2022-10-13T15:14:58;22.00;;;12.23;;
36189;SDS011;22232;50.914;13.858;2022-10-13T15:17:26;22.10;;;12.90;;
36189;SDS011;22232;50.914;13.858;2022-10-13T15:19:54;25.70;;;13.48;;
36189;SDS011;22232;50.914;13.858;2022-10-13T15:22:21;28.38;;;12.82;;
36189;SDS011;22232;50.914;13.858;2022-10-13T15:24:49;19.50;;;12.65;;
36189;SDS011;22232;50.914;13.858;2022-10-13T15:27:17;21.95;;;13.43;;
36189;SDS011;22232;50.914;13.858;2022-10-13T15:29:44;25.73;;;13.65;;
36189;SDS011;22232;50.914;13.858;2022-10-13T15:32:13;28.40;;;15.23;;
36189;SDS011;22232;50.914;13.858;2022-10-13T15:34:53;26.08;;;13.10;;
36189;SDS011;22232;50.914;13.858;2022-10-13T15:37:21;25.13;;;13.98;;
36189;SDS011;22232;50.914;13.858;2022-10-13T15:39:48;26.63;;;14.43;;
36189;SDS011;22232;50.914;13.858;2022-10-13T15:42:22;20.33;;;13.13;;
36189;SDS011;22232;50.914;13.858;2022-10-13T15:44:50;23.98;;;15.38;;
36189;SDS011;22232;50.914;13.858;2022-10-13T15:47:35;26.98;;;15.38;;
36189;SDS011;22232;50.914;13.858;2022-10-13T15:50:02;29.55;;;14.32;;
36189;SDS011;22232;50.914;13.858;2022-10-13T15:52:30;21.33;;;13.63;;
36189;SDS011;22232;50.914;13.858;2022-10-13T15:55:01;24.67;;;15.13;;
36189;SDS011;22232;50.914;13.858;2022-10-13T15:57:31;27.85;;;15.88;;
36189;SDS011;22232;50.914;13.858;2022-10-13T15:59:59;26.70;;;16.08;;
36189;SDS011;22232;50.914;13.858;2022-10-13T16:02:27;28.13;;;15.35;;
36189;SDS011;22232;50.914;13.858;2022-10-13T16:04:54;26.75;;;15.25;;
36189;SDS011;22232;50.914;13.858;2022-10-13T16:07:23;27.65;;;16.48;;
36189;SDS011;22232;50.914;13.858;2022-10-13T16:09:50;30.38;;;16.75;;
36189;SDS011;22232;50.914;13.858;2022-10-13T16:12:18;33.05;;;16.50;;
36189;SDS011;22232;50.914;13.858;2022-10-13T16:14:45;28.30;;;15.77;;
36189;SDS011;22232;50.914;13.858;2022-10-13T16:17:13;31.67;;;16.67;;
36189;SDS011;22232;50.914;13.858;2022-10-13T16:19:41;29.33;;;17.33;;